sensor_id;sensor_type;location;lat;lon;timestamp;temperature;humidity
54960;DHT22;40860;51.710;8.736;2023-07-20T00:01:21;16.20;99.90
54960;DHT22;40860;51.710;8.736;2023-07-20T00:05:24;16.20;99.90
54960;DHT22;40860;51.710;8.736;2023-07-20T00:09:27;16.20;99.90
54960;DHT22;40860;51.710;8.736;2023-07-20T00:13:32;16.10;99.90
54960;DHT22;40860;51.710;8.736;2023-07-20T00:17:35;16.10;99.90
54960;DHT22;40860;51.710;8.736;2023-07-20T00:21:39;16.10;99.90
54960;DHT22;40860;51.710;8.736;2023-07-20T00:25:44;16.20;99.90
54960;DHT22;40860;51.710;8.736;2023-07-20T00:29:48;16.20;99.90
54960;DHT22;40860;51.710;8.736;2023-07-20T00:33:51;16.20;99.90
54960;DHT22;40860;51.710;8.736;2023-07-20T00:37:54;16.30;99.90
54960;DHT22;40860;51.710;8.736;2023-07-20T00:41:57;16.30;99.90
54960;DHT22;40860;51.710;8.736;2023-07-20T00:46:01;16.20;99.90
54960;DHT22;40860;51.710;8.736;2023-07-20T00:50:06;16.20;99.90
54960;DHT22;40860;51.710;8.736;2023-07-20T00:54:10;16.20;99.90
54960;DHT22;40860;51.710;8.736;2023-07-20T00:58:13;16.20;99.90
54960;DHT22;40860;51.710;8.736;2023-07-20T01:02:17;16.20;99.90
54960;DHT22;40860;51.710;8.736;2023-07-20T01:06:28;16.20;99.90
54960;DHT22;40860;51.710;8.736;2023-07-20T01:10:38;16.20;99.90
54960;DHT22;40860;51.710;8.736;2023-07-20T01:14:43;16.20;99.90
54960;DHT22;40860;51.710;8.736;2023-07-20T01:18:47;16.20;99.90
54960;DHT22;40860;51.710;8.736;2023-07-20T01:23:07;16.20;99.90
54960;DHT22;40860;51.710;8.736;2023-07-20T01:27:32;16.20;99.90
54960;DHT22;40860;51.710;8.736;2023-07-20T01:31:41;16.20;99.90
54960;DHT22;40860;51.710;8.736;2023-07-20T01:35:50;16.20;99.90
54960;DHT22;40860;51.710;8.736;2023-07-20T01:39:54;16.10;99.90
54960;DHT22;40860;51.710;8.736;2023-07-20T01:43:58;16.10;99.90
54960;DHT22;40860;51.710;8.736;2023-07-20T01:48:04;16.10;99.90
54960;DHT22;40860;51.710;8.736;2023-07-20T01:52:07;16.10;99.90
54960;DHT22;40860;51.710;8.736;2023-07-20T01:56:10;16.10;99.90
54960;DHT22;40860;51.710;8.736;2023-07-20T02:00:14;16.10;99.90
54960;DHT22;40860;51.710;8.736;2023-07-20T02:04:18;16.10;99.90
54960;DHT22;40860;51.710;8.736;2023-07-20T02:08:21;16.10;99.90
54960;DHT22;40860;51.710;8.736;2023-07-20T02:12:25;16.10;99.90
54960;DHT22;40860;51.710;8.736;2023-07-20T02:16:28;16.10;99.90
54960;DHT22;40860;51.710;8.736;2023-07-20T02:20:33;16.00;99.90
54960;DHT22;40860;51.710;8.736;2023-07-20T02:24:36;16.00;99.90
54960;DHT22;40860;51.710;8.736;2023-07-20T02:28:39;16.00;99.90
54960;DHT22;40860;51.710;8.736;2023-07-20T02:32:42;16.00;99.90
54960;DHT22;40860;51.710;8.736;2023-07-20T02:36:49;16.00;99.90
54960;DHT22;40860;51.710;8.736;2023-07-20T02:40:52;16.00;99.90
54960;DHT22;40860;51.710;8.736;2023-07-20T02:44:54;15.90;99.90
54960;DHT22;40860;51.710;8.736;2023-07-20T02:48:57;15.90;99.90
54960;DHT22;40860;51.710;8.736;2023-07-20T02:53:01;15.90;99.90
54960;DHT22;40860;51.710;8.736;2023-07-20T02:57:05;15.90;99.90
54960;DHT22;40860;51.710;8.736;2023-07-20T03:01:08;15.90;99.90
54960;DHT22;40860;51.710;8.736;2023-07-20T03:05:11;15.90;99.90
54960;DHT22;40860;51.710;8.736;2023-07-20T03:09:16;15.80;99.90
54960;DHT22;40860;51.710;8.736;2023-07-20T03:13:19;15.90;99.90
54960;DHT22;40860;51.710;8.736;2023-07-20T03:17:21;15.90;99.90
54960;DHT22;40860;51.710;8.736;2023-07-20T03:21:25;15.80;99.90
54960;DHT22;40860;51.710;8.736;2023-07-20T03:25:29;15.90;99.90
54960;DHT22;40860;51.710;8.736;2023-07-20T03:29:32;15.90;99.90
54960;DHT22;40860;51.710;8.736;2023-07-20T03:33:35;15.90;99.90
54960;DHT22;40860;51.710;8.736;2023-07-20T03:37:38;15.90;99.90
54960;DHT22;40860;51.710;8.736;2023-07-20T03:41:43;15.90;99.90
54960;DHT22;40860;51.710;8.736;2023-07-20T03:45:45;15.90;99.90
54960;DHT22;40860;51.710;8.736;2023-07-20T03:49:49;15.90;99.90
54960;DHT22;40860;51.710;8.736;2023-07-20T03:53:52;15.90;99.90
54960;DHT22;40860;51.710;8.736;2023-07-20T03:57:56;15.90;99.90
54960;DHT22;40860;51.710;8.736;2023-07-20T04:01:59;15.90;99.90
54960;DHT22;40860;51.710;8.736;2023-07-20T04:06:02;16.00;99.90
54960;DHT22;40860;51.710;8.736;2023-07-20T04:10:06;15.90;99.90
54960;DHT22;40860;51.710;8.736;2023-07-20T04:14:10;15.90;99.90
54960;DHT22;40860;51.710;8.736;2023-07-20T04:18:13;16.00;99.90
54960;DHT22;40860;51.710;8.736;2023-07-20T04:22:16;16.00;99.90
54960;DHT22;40860;51.710;8.736;2023-07-20T04:26:19;16.00;99.90
54960;DHT22;40860;51.710;8.736;2023-07-20T04:30:25;16.00;99.90
54960;DHT22;40860;51.710;8.736;2023-07-20T04:34:28;16.00;99.90
54960;DHT22;40860;51.710;8.736;2023-07-20T04:38:32;16.00;99.90
54960;DHT22;40860;51.710;8.736;2023-07-20T04:42:48;16.00;99.90
54960;DHT22;40860;51.710;8.736;2023-07-20T04:46:53;16.00;99.90
54960;DHT22;40860;51.710;8.736;2023-07-20T04:50:56;16.00;99.90
54960;DHT22;40860;51.710;8.736;2023-07-20T04:55:00;16.00;99.90
54960;DHT22;40860;51.710;8.736;2023-07-20T04:59:03;16.10;99.90
54960;DHT22;40860;51.710;8.736;2023-07-20T05:03:07;16.10;99.90
54960;DHT22;40860;51.710;8.736;2023-07-20T05:07:10;16.10;99.90
54960;DHT22;40860;51.710;8.736;2023-07-20T05:11:13;16.10;99.90
54960;DHT22;40860;51.710;8.736;2023-07-20T05:15:16;16.10;99.90
54960;DHT22;40860;51.710;8.736;2023-07-20T05:19:20;16.10;99.90
54960;DHT22;40860;51.710;8.736;2023-07-20T05:23:24;16.10;99.90
54960;DHT22;40860;51.710;8.736;2023-07-20T05:27:28;16.00;99.90
54960;DHT22;40860;51.710;8.736;2023-07-20T05:31:31;16.00;99.90
54960;DHT22;40860;51.710;8.736;2023-07-20T05:35:37;16.10;99.90
54960;DHT22;40860;51.710;8.736;2023-07-20T05:39:40;16.10;99.90
54960;DHT22;40860;51.710;8.736;2023-07-20T05:43:43;16.10;99.90
54960;DHT22;40860;51.710;8.736;2023-07-20T05:47:46;16.10;99.90
54960;DHT22;40860;51.710;8.736;2023-07-20T05:51:50;16.10;99.90
54960;DHT22;40860;51.710;8.736;2023-07-20T05:55:53;16.00;99.90
54960;DHT22;40860;51.710;8.736;2023-07-20T05:59:56;15.70;99.90
54960;DHT22;40860;51.710;8.736;2023-07-20T06:03:59;15.50;99.90
54960;DHT22;40860;51.710;8.736;2023-07-20T06:08:04;15.40;99.90
54960;DHT22;40860;51.710;8.736;2023-07-20T06:12:08;15.30;99.90
54960;DHT22;40860;51.710;8.736;2023-07-20T06:16:11;15.30;99.90
54960;DHT22;40860;51.710;8.736;2023-07-20T06:20:15;15.40;99.90
54960;DHT22;40860;51.710;8.736;2023-07-20T06:24:19;15.40;99.90
54960;DHT22;40860;51.710;8.736;2023-07-20T06:28:22;15.40;99.90
54960;DHT22;40860;51.710;8.736;2023-07-20T06:32:25;15.40;99.90
54960;DHT22;40860;51.710;8.736;2023-07-20T06:36:28;15.40;99.90
54960;DHT22;40860;51.710;8.736;2023-07-20T06:40:35;15.60;99.90
54960;DHT22;40860;51.710;8.736;2023-07-20T06:44:38;16.00;99.90
54960;DHT22;40860;51.710;8.736;2023-07-20T06:48:40;16.60;99.90
54960;DHT22;40860;51.710;8.736;2023-07-20T06:52:46;16.70;99.90
54960;DHT22;40860;51.710;8.736;2023-07-20T06:56:51;16.60;99.90
54960;DHT22;40860;51.710;8.736;2023-07-20T07:00:57;16.50;99.90
54960;DHT22;40860;51.710;8.736;2023-07-20T07:05:00;16.40;99.90
54960;DHT22;40860;51.710;8.736;2023-07-20T07:09:19;16.30;99.90
54960;DHT22;40860;51.710;8.736;2023-07-20T07:13:24;16.40;99.90
54960;DHT22;40860;51.710;8.736;2023-07-20T07:17:27;16.40;99.90
54960;DHT22;40860;51.710;8.736;2023-07-20T07:21:30;16.50;99.90
54960;DHT22;40860;51.710;8.736;2023-07-20T07:25:33;16.60;99.90
54960;DHT22;40860;51.710;8.736;2023-07-20T07:29:37;16.50;99.90
54960;DHT22;40860;51.710;8.736;2023-07-20T07:33:40;16.90;99.90
54960;DHT22;40860;51.710;8.736;2023-07-20T07:37:43;19.30;99.90
54960;DHT22;40860;51.710;8.736;2023-07-20T07:42:08;20.30;93.80
54960;DHT22;40860;51.710;8.736;2023-07-20T07:46:12;22.20;90.60
54960;DHT22;40860;51.710;8.736;2023-07-20T07:50:16;22.70;83.40
54960;DHT22;40860;51.710;8.736;2023-07-20T07:54:19;21.50;87.70
54960;DHT22;40860;51.710;8.736;2023-07-20T07:58:21;22.50;82.30
54960;DHT22;40860;51.710;8.736;2023-07-20T08:06:29;19.90;99.90
54960;DHT22;40860;51.710;8.736;2023-07-20T08:10:33;20.10;89.10
54960;DHT22;40860;51.710;8.736;2023-07-20T08:14:36;21.30;89.60
54960;DHT22;40860;51.710;8.736;2023-07-20T08:18:40;21.40;82.80
54960;DHT22;40860;51.710;8.736;2023-07-20T08:22:43;21.00;86.30
54960;DHT22;40860;51.710;8.736;2023-07-20T08:26:49;20.20;86.50
54960;DHT22;40860;51.710;8.736;2023-07-20T08:30:52;19.80;87.40
54960;DHT22;40860;51.710;8.736;2023-07-20T08:34:56;19.90;89.30
54960;DHT22;40860;51.710;8.736;2023-07-20T08:38:59;20.30;85.90
54960;DHT22;40860;51.710;8.736;2023-07-20T08:43:05;20.70;81.70
54960;DHT22;40860;51.710;8.736;2023-07-20T08:47:08;20.50;80.40
54960;DHT22;40860;51.710;8.736;2023-07-20T08:51:13;20.30;82.60
54960;DHT22;40860;51.710;8.736;2023-07-20T08:55:16;21.10;77.90
54960;DHT22;40860;51.710;8.736;2023-07-20T08:59:22;21.10;76.20
54960;DHT22;40860;51.710;8.736;2023-07-20T09:03:26;20.60;76.90
54960;DHT22;40860;51.710;8.736;2023-07-20T09:07:31;20.80;77.60
54960;DHT22;40860;51.710;8.736;2023-07-20T09:11:34;20.80;76.00
54960;DHT22;40860;51.710;8.736;2023-07-20T09:15:37;21.40;76.90
54960;DHT22;40860;51.710;8.736;2023-07-20T09:19:45;21.30;72.40
54960;DHT22;40860;51.710;8.736;2023-07-20T09:23:56;21.10;72.30
54960;DHT22;40860;51.710;8.736;2023-07-20T09:28:02;21.50;72.10
54960;DHT22;40860;51.710;8.736;2023-07-20T09:32:07;21.60;72.10
54960;DHT22;40860;51.710;8.736;2023-07-20T09:36:26;21.80;66.10
54960;DHT22;40860;51.710;8.736;2023-07-20T09:40:37;21.60;66.40
54960;DHT22;40860;51.710;8.736;2023-07-20T09:44:44;21.90;70.20
54960;DHT22;40860;51.710;8.736;2023-07-20T09:48:53;22.40;69.10
54960;DHT22;40860;51.710;8.736;2023-07-20T09:53:00;22.60;64.80
54960;DHT22;40860;51.710;8.736;2023-07-20T09:57:08;22.80;64.00
54960;DHT22;40860;51.710;8.736;2023-07-20T10:01:13;22.70;63.20
54960;DHT22;40860;51.710;8.736;2023-07-20T10:05:19;22.70;64.10
54960;DHT22;40860;51.710;8.736;2023-07-20T10:09:22;22.90;62.30
54960;DHT22;40860;51.710;8.736;2023-07-20T10:13:29;22.20;62.80
54960;DHT22;40860;51.710;8.736;2023-07-20T10:17:33;22.40;61.90
54960;DHT22;40860;51.710;8.736;2023-07-20T10:21:40;22.50;59.00
54960;DHT22;40860;51.710;8.736;2023-07-20T10:25:45;22.30;60.40
54960;DHT22;40860;51.710;8.736;2023-07-20T10:29:51;22.30;60.50
54960;DHT22;40860;51.710;8.736;2023-07-20T10:33:56;22.00;62.50
54960;DHT22;40860;51.710;8.736;2023-07-20T10:38:04;21.70;62.40
54960;DHT22;40860;51.710;8.736;2023-07-20T10:42:07;21.80;63.70
54960;DHT22;40860;51.710;8.736;2023-07-20T10:46:12;22.40;61.00
54960;DHT22;40860;51.710;8.736;2023-07-20T10:50:15;22.40;62.30
54960;DHT22;40860;51.710;8.736;2023-07-20T10:54:47;22.30;59.00
54960;DHT22;40860;51.710;8.736;2023-07-20T10:58:56;22.90;59.50
54960;DHT22;40860;51.710;8.736;2023-07-20T11:03:02;22.90;58.50
54960;DHT22;40860;51.710;8.736;2023-07-20T11:07:05;23.00;58.80
54960;DHT22;40860;51.710;8.736;2023-07-20T11:11:21;23.10;58.20
54960;DHT22;40860;51.710;8.736;2023-07-20T11:15:25;23.20;53.70
54960;DHT22;40860;51.710;8.736;2023-07-20T11:19:29;23.10;56.40
54960;DHT22;40860;51.710;8.736;2023-07-20T11:23:38;23.20;55.30
54960;DHT22;40860;51.710;8.736;2023-07-20T11:27:45;23.30;55.30
54960;DHT22;40860;51.710;8.736;2023-07-20T11:31:48;23.50;55.40
54960;DHT22;40860;51.710;8.736;2023-07-20T11:35:53;23.80;54.00
54960;DHT22;40860;51.710;8.736;2023-07-20T11:39:56;24.00;53.10
54960;DHT22;40860;51.710;8.736;2023-07-20T11:43:59;23.50;53.90
54960;DHT22;40860;51.710;8.736;2023-07-20T11:48:03;23.40;54.70
54960;DHT22;40860;51.710;8.736;2023-07-20T11:52:09;23.60;52.50
54960;DHT22;40860;51.710;8.736;2023-07-20T11:56:12;23.80;53.30
54960;DHT22;40860;51.710;8.736;2023-07-20T12:00:16;24.10;51.60
54960;DHT22;40860;51.710;8.736;2023-07-20T12:04:22;24.10;53.10
54960;DHT22;40860;51.710;8.736;2023-07-20T12:08:26;23.70;52.70
54960;DHT22;40860;51.710;8.736;2023-07-20T12:12:31;23.60;52.60
54960;DHT22;40860;51.710;8.736;2023-07-20T12:16:35;23.90;52.50
54960;DHT22;40860;51.710;8.736;2023-07-20T12:20:39;24.20;51.30
54960;DHT22;40860;51.710;8.736;2023-07-20T12:24:44;24.20;51.80
54960;DHT22;40860;51.710;8.736;2023-07-20T12:28:47;24.30;51.40
54960;DHT22;40860;51.710;8.736;2023-07-20T12:32:50;24.30;51.80
54960;DHT22;40860;51.710;8.736;2023-07-20T12:36:53;23.40;51.60
54960;DHT22;40860;51.710;8.736;2023-07-20T12:41:00;23.40;51.80
54960;DHT22;40860;51.710;8.736;2023-07-20T12:45:04;23.30;52.40
54960;DHT22;40860;51.710;8.736;2023-07-20T12:49:07;23.70;52.10
54960;DHT22;40860;51.710;8.736;2023-07-20T12:53:10;23.80;52.10
54960;DHT22;40860;51.710;8.736;2023-07-20T12:57:14;23.60;52.00
54960;DHT22;40860;51.710;8.736;2023-07-20T13:01:17;23.70;53.50
54960;DHT22;40860;51.710;8.736;2023-07-20T13:05:20;24.30;50.10
54960;DHT22;40860;51.710;8.736;2023-07-20T13:09:43;24.40;49.90
54960;DHT22;40860;51.710;8.736;2023-07-20T13:13:47;24.20;49.80
54960;DHT22;40860;51.710;8.736;2023-07-20T13:17:50;24.00;51.00
54960;DHT22;40860;51.710;8.736;2023-07-20T13:21:54;23.90;50.90
54960;DHT22;40860;51.710;8.736;2023-07-20T13:25:57;23.60;51.40
54960;DHT22;40860;51.710;8.736;2023-07-20T13:30:01;23.50;52.10
54960;DHT22;40860;51.710;8.736;2023-07-20T13:34:10;23.50;51.40
54960;DHT22;40860;51.710;8.736;2023-07-20T13:38:19;23.70;51.80
54960;DHT22;40860;51.710;8.736;2023-07-20T13:42:23;24.10;50.90
54960;DHT22;40860;51.710;8.736;2023-07-20T13:46:27;24.00;49.40
54960;DHT22;40860;51.710;8.736;2023-07-20T13:50:33;23.90;50.50
54960;DHT22;40860;51.710;8.736;2023-07-20T13:54:39;24.20;49.50
54960;DHT22;40860;51.710;8.736;2023-07-20T13:58:50;24.10;48.80
54960;DHT22;40860;51.710;8.736;2023-07-20T14:02:54;24.90;48.80
54960;DHT22;40860;51.710;8.736;2023-07-20T14:07:00;25.40;48.60
54960;DHT22;40860;51.710;8.736;2023-07-20T14:11:03;25.30;47.00
54960;DHT22;40860;51.710;8.736;2023-07-20T14:15:10;25.00;48.30
54960;DHT22;40860;51.710;8.736;2023-07-20T14:19:14;24.70;47.60
54960;DHT22;40860;51.710;8.736;2023-07-20T14:23:17;24.70;47.50
54960;DHT22;40860;51.710;8.736;2023-07-20T14:27:20;24.60;48.10
54960;DHT22;40860;51.710;8.736;2023-07-20T14:31:23;24.70;47.20
54960;DHT22;40860;51.710;8.736;2023-07-20T14:35:28;24.70;47.40
54960;DHT22;40860;51.710;8.736;2023-07-20T14:39:31;24.90;47.10
54960;DHT22;40860;51.710;8.736;2023-07-20T14:43:34;24.70;46.40
54960;DHT22;40860;51.710;8.736;2023-07-20T14:47:37;25.20;46.90
54960;DHT22;40860;51.710;8.736;2023-07-20T14:51:41;26.00;45.30
54960;DHT22;40860;51.710;8.736;2023-07-20T14:55:48;26.40;43.00
54960;DHT22;40860;51.710;8.736;2023-07-20T14:59:51;26.90;43.10
54960;DHT22;40860;51.710;8.736;2023-07-20T15:03:54;26.90;43.10
54960;DHT22;40860;51.710;8.736;2023-07-20T15:08:01;27.30;41.80
54960;DHT22;40860;51.710;8.736;2023-07-20T15:12:05;27.30;41.60
54960;DHT22;40860;51.710;8.736;2023-07-20T15:16:09;27.00;41.60
54960;DHT22;40860;51.710;8.736;2023-07-20T15:20:13;27.00;41.10
54960;DHT22;40860;51.710;8.736;2023-07-20T15:24:18;26.60;43.70
54960;DHT22;40860;51.710;8.736;2023-07-20T15:28:22;27.10;42.60
54960;DHT22;40860;51.710;8.736;2023-07-20T15:32:24;27.50;41.50
54960;DHT22;40860;51.710;8.736;2023-07-20T15:36:27;28.00;41.50
54960;DHT22;40860;51.710;8.736;2023-07-20T15:40:33;28.00;40.60
54960;DHT22;40860;51.710;8.736;2023-07-20T15:44:36;28.10;40.70
54960;DHT22;40860;51.710;8.736;2023-07-20T15:48:38;28.00;41.10
54960;DHT22;40860;51.710;8.736;2023-07-20T15:52:43;27.40;41.80
54960;DHT22;40860;51.710;8.736;2023-07-20T15:56:48;26.90;42.40
54960;DHT22;40860;51.710;8.736;2023-07-20T16:00:53;27.00;42.60
54960;DHT22;40860;51.710;8.736;2023-07-20T16:04:57;26.90;41.60
54960;DHT22;40860;51.710;8.736;2023-07-20T16:09:15;27.10;42.30
54960;DHT22;40860;51.710;8.736;2023-07-20T16:13:19;27.70;41.90
54960;DHT22;40860;51.710;8.736;2023-07-20T16:17:22;27.80;40.20
54960;DHT22;40860;51.710;8.736;2023-07-20T16:21:28;27.60;41.10
54960;DHT22;40860;51.710;8.736;2023-07-20T16:25:34;27.50;40.70
54960;DHT22;40860;51.710;8.736;2023-07-20T16:29:38;27.60;40.80
54960;DHT22;40860;51.710;8.736;2023-07-20T16:33:45;27.90;40.90
54960;DHT22;40860;51.710;8.736;2023-07-20T16:37:48;27.10;40.50
54960;DHT22;40860;51.710;8.736;2023-07-20T16:42:11;26.30;42.00
54960;DHT22;40860;51.710;8.736;2023-07-20T16:46:17;26.50;41.40
54960;DHT22;40860;51.710;8.736;2023-07-20T16:50:23;26.70;41.90
54960;DHT22;40860;51.710;8.736;2023-07-20T16:54:26;26.70;42.10
54960;DHT22;40860;51.710;8.736;2023-07-20T16:58:29;26.50;41.70
54960;DHT22;40860;51.710;8.736;2023-07-20T17:02:34;26.20;41.50
54960;DHT22;40860;51.710;8.736;2023-07-20T17:06:38;25.70;41.90
54960;DHT22;40860;51.710;8.736;2023-07-20T17:10:41;25.20;43.70
54960;DHT22;40860;51.710;8.736;2023-07-20T17:14:44;25.00;43.60
54960;DHT22;40860;51.710;8.736;2023-07-20T17:18:48;24.40;44.00
54960;DHT22;40860;51.710;8.736;2023-07-20T17:22:51;24.10;45.00
54960;DHT22;40860;51.710;8.736;2023-07-20T17:26:54;23.70;46.30
54960;DHT22;40860;51.710;8.736;2023-07-20T17:31:00;23.50;47.40
54960;DHT22;40860;51.710;8.736;2023-07-20T17:35:05;23.20;48.40
54960;DHT22;40860;51.710;8.736;2023-07-20T17:39:08;23.10;48.10
54960;DHT22;40860;51.710;8.736;2023-07-20T17:43:11;22.90;48.70
54960;DHT22;40860;51.710;8.736;2023-07-20T17:47:14;22.70;49.20
54960;DHT22;40860;51.710;8.736;2023-07-20T17:51:21;22.40;49.70
54960;DHT22;40860;51.710;8.736;2023-07-20T17:55:24;22.30;50.10
54960;DHT22;40860;51.710;8.736;2023-07-20T17:59:28;22.10;51.10
54960;DHT22;40860;51.710;8.736;2023-07-20T18:03:31;21.90;51.70
54960;DHT22;40860;51.710;8.736;2023-07-20T18:07:35;21.70;52.50
54960;DHT22;40860;51.710;8.736;2023-07-20T18:11:38;21.70;52.90
54960;DHT22;40860;51.710;8.736;2023-07-20T18:15:41;21.60;53.70
54960;DHT22;40860;51.710;8.736;2023-07-20T18:19:44;21.50;53.50
54960;DHT22;40860;51.710;8.736;2023-07-20T18:23:49;21.40;54.50
54960;DHT22;40860;51.710;8.736;2023-07-20T18:27:53;21.30;54.80
54960;DHT22;40860;51.710;8.736;2023-07-20T18:31:55;21.30;55.10
54960;DHT22;40860;51.710;8.736;2023-07-20T18:35:58;21.20;54.70
54960;DHT22;40860;51.710;8.736;2023-07-20T18:40:03;21.10;54.70
54960;DHT22;40860;51.710;8.736;2023-07-20T18:44:07;21.00;54.90
54960;DHT22;40860;51.710;8.736;2023-07-20T18:48:10;20.90;55.00
54960;DHT22;40860;51.710;8.736;2023-07-20T18:52:13;20.90;55.30
54960;DHT22;40860;51.710;8.736;2023-07-20T18:56:17;20.80;55.50
54960;DHT22;40860;51.710;8.736;2023-07-20T19:00:20;20.60;55.60
54960;DHT22;40860;51.710;8.736;2023-07-20T19:04:23;20.60;55.90
54960;DHT22;40860;51.710;8.736;2023-07-20T19:08:26;20.50;56.10
54960;DHT22;40860;51.710;8.736;2023-07-20T19:12:30;20.40;56.20
54960;DHT22;40860;51.710;8.736;2023-07-20T19:16:33;20.40;56.40
54960;DHT22;40860;51.710;8.736;2023-07-20T19:20:36;20.30;56.70
54960;DHT22;40860;51.710;8.736;2023-07-20T19:24:39;20.20;57.70
54960;DHT22;40860;51.710;8.736;2023-07-20T19:28:43;20.10;58.10
54960;DHT22;40860;51.710;8.736;2023-07-20T19:32:46;20.00;58.10
54960;DHT22;40860;51.710;8.736;2023-07-20T19:36:49;19.80;58.60
54960;DHT22;40860;51.710;8.736;2023-07-20T19:40:52;19.70;59.30
54960;DHT22;40860;51.710;8.736;2023-07-20T19:44:57;19.60;59.70
54960;DHT22;40860;51.710;8.736;2023-07-20T19:49:00;19.50;60.90
54960;DHT22;40860;51.710;8.736;2023-07-20T19:53:03;19.40;61.30
54960;DHT22;40860;51.710;8.736;2023-07-20T20:01:35;19.00;63.30
54960;DHT22;40860;51.710;8.736;2023-07-20T20:05:41;18.80;66.00
54960;DHT22;40860;51.710;8.736;2023-07-20T20:09:44;18.70;67.10
54960;DHT22;40860;51.710;8.736;2023-07-20T20:13:47;18.60;68.20
54960;DHT22;40860;51.710;8.736;2023-07-20T20:17:53;18.50;68.40
54960;DHT22;40860;51.710;8.736;2023-07-20T20:21:56;18.50;69.40
54960;DHT22;40860;51.710;8.736;2023-07-20T20:26:03;18.30;70.30
54960;DHT22;40860;51.710;8.736;2023-07-20T20:30:06;18.30;70.50
54960;DHT22;40860;51.710;8.736;2023-07-20T20:34:11;18.20;71.10
54960;DHT22;40860;51.710;8.736;2023-07-20T20:38:14;18.10;71.80
54960;DHT22;40860;51.710;8.736;2023-07-20T20:42:16;18.00;73.40
54960;DHT22;40860;51.710;8.736;2023-07-20T20:46:19;17.90;74.00
54960;DHT22;40860;51.710;8.736;2023-07-20T20:50:24;17.80;75.70
54960;DHT22;40860;51.710;8.736;2023-07-20T20:54:27;17.70;76.70
54960;DHT22;40860;51.710;8.736;2023-07-20T20:58:30;17.70;76.00
54960;DHT22;40860;51.710;8.736;2023-07-20T21:02:33;17.70;76.40
54960;DHT22;40860;51.710;8.736;2023-07-20T21:06:37;17.50;77.60
54960;DHT22;40860;51.710;8.736;2023-07-20T21:10:43;17.50;77.90
54960;DHT22;40860;51.710;8.736;2023-07-20T21:14:46;17.40;78.50
54960;DHT22;40860;51.710;8.736;2023-07-20T21:18:49;17.30;78.90
54960;DHT22;40860;51.710;8.736;2023-07-20T21:22:53;17.40;78.80
54960;DHT22;40860;51.710;8.736;2023-07-20T21:26:56;17.40;78.40
54960;DHT22;40860;51.710;8.736;2023-07-20T21:31:00;17.40;78.70
54960;DHT22;40860;51.710;8.736;2023-07-20T21:35:04;17.50;79.10
54960;DHT22;40860;51.710;8.736;2023-07-20T21:39:10;17.50;79.30
54960;DHT22;40860;51.710;8.736;2023-07-20T21:43:13;17.50;80.60
54960;DHT22;40860;51.710;8.736;2023-07-20T21:47:15;17.40;79.80
54960;DHT22;40860;51.710;8.736;2023-07-20T21:51:20;17.40;80.70
54960;DHT22;40860;51.710;8.736;2023-07-20T21:55:25;17.40;80.90
54960;DHT22;40860;51.710;8.736;2023-07-20T21:59:30;17.40;83.10
54960;DHT22;40860;51.710;8.736;2023-07-20T22:03:33;17.40;82.70
54960;DHT22;40860;51.710;8.736;2023-07-20T22:07:37;17.40;82.50
54960;DHT22;40860;51.710;8.736;2023-07-20T22:11:42;17.40;82.80
54960;DHT22;40860;51.710;8.736;2023-07-20T22:15:45;17.40;83.30
54960;DHT22;40860;51.710;8.736;2023-07-20T22:19:48;17.40;83.70
54960;DHT22;40860;51.710;8.736;2023-07-20T22:23:50;17.40;82.70
54960;DHT22;40860;51.710;8.736;2023-07-20T22:27:55;17.40;83.60
54960;DHT22;40860;51.710;8.736;2023-07-20T22:31:58;17.40;82.60
54960;DHT22;40860;51.710;8.736;2023-07-20T22:36:01;17.40;83.60
54960;DHT22;40860;51.710;8.736;2023-07-20T22:40:04;17.40;84.00
54960;DHT22;40860;51.710;8.736;2023-07-20T22:44:09;17.30;84.50
54960;DHT22;40860;51.710;8.736;2023-07-20T22:48:12;17.30;84.90
54960;DHT22;40860;51.710;8.736;2023-07-20T22:52:16;17.30;85.40
54960;DHT22;40860;51.710;8.736;2023-07-20T22:56:19;17.30;85.90
54960;DHT22;40860;51.710;8.736;2023-07-20T23:00:25;17.30;85.20
54960;DHT22;40860;51.710;8.736;2023-07-20T23:04:33;17.30;86.00
54960;DHT22;40860;51.710;8.736;2023-07-20T23:08:36;17.30;86.80
54960;DHT22;40860;51.710;8.736;2023-07-20T23:12:39;17.40;86.50
54960;DHT22;40860;51.710;8.736;2023-07-20T23:16:43;17.30;87.70
54960;DHT22;40860;51.710;8.736;2023-07-20T23:20:46;17.30;87.20
54960;DHT22;40860;51.710;8.736;2023-07-20T23:24:50;17.30;87.30
54960;DHT22;40860;51.710;8.736;2023-07-20T23:28:53;17.30;85.10
54960;DHT22;40860;51.710;8.736;2023-07-20T23:32:57;17.40;84.20
54960;DHT22;40860;51.710;8.736;2023-07-20T23:41:04;17.50;82.40
54960;DHT22;40860;51.710;8.736;2023-07-20T23:45:09;17.50;83.20
54960;DHT22;40860;51.710;8.736;2023-07-20T23:49:14;17.50;82.80
54960;DHT22;40860;51.710;8.736;2023-07-20T23:53:17;17.40;83.70
54960;DHT22;40860;51.710;8.736;2023-07-20T23:57:19;17.40;83.40
